Time;durP1;ratioP1;P1;durP2;ratioP2;P2;SDS_P1;SDS_P2;PMS_P1;PMS_P2;Temp;Humidity;BMP_temperature;BMP_pressure;BME280_temperature;BME280_humidity;BME280_pressure;Samples;Min_cycle;Max_cycle;Signal;HPM_P1;HPM_P2
2022/04/24 00:01:41;;;;;;;16.97;9.53;;;;;;;10.83;100.00;61958.16;5113141;28;20199;-73
2022/04/24 00:04:08;;;;;;;18.17;9.37;;;;;;;10.78;100.00;61963.53;5113083;28;20198;-72
2022/04/24 00:06:35;;;;;;;17.53;10.07;;;;;;;10.77;100.00;61952.28;5113142;28;20195;-71
2022/04/24 00:09:04;;;;;;;15.77;9.07;;;;;;;10.68;100.00;61945.19;5113297;28;20231;-72
2022/04/24 00:11:31;;;;;;;17.17;9.50;;;;;;;10.35;100.00;61907.28;5113027;28;20661;-72
2022/04/24 00:13:58;;;;;;;16.43;8.83;;;;;;;10.67;100.00;61941.56;5113121;28;20290;-71
2022/04/24 00:16:25;;;;;;;16.27;9.20;;;;;;;10.70;100.00;61941.69;5112926;28;20224;-71
2022/04/24 00:18:52;;;;;;;14.27;8.97;;;;;;;10.59;100.00;61935.53;5112741;28;20195;-73
2022/04/24 00:21:18;;;;;;;17.73;9.03;;;;;;;10.61;100.00;61934.59;5112814;28;20195;-72
2022/04/24 00:23:45;;;;;;;16.33;8.30;;;;;;;10.61;100.00;61932.03;5112593;28;20690;-72
2022/04/24 00:26:13;;;;;;;14.23;8.73;;;;;;;10.65;100.00;61944.50;5112631;28;20202;-72
2022/04/24 00:28:40;;;;;;;14.87;8.37;;;;;;;10.58;100.00;61931.91;5112696;28;20227;-70
2022/04/24 00:31:08;;;;;;;14.80;8.70;;;;;;;10.41;100.00;61911.16;5112391;28;20230;-72
2022/04/24 00:33:35;;;;;;;16.47;8.10;;;;;;;10.50;100.00;61925.34;5111456;28;20560;-73
2022/04/24 00:36:02;;;;;;;15.40;6.87;;;;;;;10.45;100.00;61917.97;5112808;28;20199;-72
2022/04/24 00:38:29;;;;;;;13.07;7.60;;;;;;;10.41;100.00;61913.16;5112661;28;20514;-72
2022/04/24 00:40:56;;;;;;;14.23;6.03;;;;;;;9.91;100.00;61860.13;5112700;28;20191;-72
2022/04/24 00:43:25;;;;;;;9.90;5.87;;;;;;;10.34;100.00;61905.66;5112411;28;20685;-71
2022/04/24 00:45:55;;;;;;;11.90;6.03;;;;;;;10.17;100.00;61888.00;5112423;28;20486;-71
2022/04/24 00:48:22;;;;;;;10.57;5.93;;;;;;;10.16;100.00;61886.94;5112551;28;20223;-71
2022/04/24 00:50:49;;;;;;;8.90;5.57;;;;;;;9.95;100.00;61866.97;5112610;28;20225;-71
2022/04/24 00:53:17;;;;;;;12.17;6.17;;;;;;;10.14;100.00;61884.78;5112174;28;20198;-72
2022/04/24 00:55:44;;;;;;;10.77;5.70;;;;;;;10.09;100.00;61879.41;5112122;28;20206;-72
2022/04/24 00:58:11;;;;;;;10.87;5.47;;;;;;;10.04;100.00;61874.06;5112309;28;20199;-73
2022/04/24 01:00:39;;;;;;;12.13;5.83;;;;;;;9.98;100.00;61873.25;5112193;28;20203;-73
2022/04/24 01:03:06;;;;;;;10.87;5.47;;;;;;;10.05;100.00;61875.66;5112041;28;20802;-72
2022/04/24 01:05:34;;;;;;;10.30;6.20;;;;;;;10.03;100.00;61875.53;5112144;28;20217;-71
2022/04/24 01:08:00;;;;;;;9.20;6.00;;;;;;;9.88;100.00;61857.47;5111936;28;20506;-71
2022/04/24 01:10:27;;;;;;;10.43;5.87;;;;;;;9.85;100.00;61853.72;5112025;28;20206;-72
2022/04/24 01:12:54;;;;;;;13.70;6.53;;;;;;;9.93;100.00;61857.72;5111958;28;20248;-73
2022/04/24 01:15:21;;;;;;;9.20;5.47;;;;;;;9.90;100.00;61859.59;5112297;28;20199;-71
2022/04/24 01:17:49;;;;;;;11.90;6.30;;;;;;;9.91;100.00;61863.22;5111083;28;20449;-72
2022/04/24 01:20:20;;;;;;;12.73;6.00;;;;;;;9.78;100.00;61843.69;5111790;28;20275;-72
2022/04/24 01:22:47;;;;;;;13.17;6.57;;;;;;;9.80;100.00;61848.91;5112140;28;20445;-71
2022/04/24 01:25:16;;;;;;;12.03;6.70;;;;;;;9.88;100.00;61854.41;5111796;28;20244;-72
2022/04/24 01:27:43;;;;;;;12.23;7.00;;;;;;;9.61;100.00;61828.03;5111656;28;20203;-71
2022/04/24 01:30:10;;;;;;;11.70;5.90;;;;;;;9.91;100.00;61860.13;5111774;28;20238;-72
2022/04/24 01:32:38;;;;;;;11.60;6.70;;;;;;;9.92;100.00;61861.22;5112038;28;20449;-71
2022/04/24 01:35:07;;;;;;;12.67;6.17;;;;;;;9.99;100.00;61868.69;5111862;28;20230;-71
2022/04/24 01:37:35;;;;;;;10.80;6.10;;;;;;;9.97;100.00;61864.03;5111850;28;20440;-71
2022/04/24 01:40:02;;;;;;;9.87;5.17;;;;;;;9.93;100.00;61862.28;5110285;28;20977;-70
2022/04/24 01:42:29;;;;;;;19.67;6.40;;;;;;;9.75;100.00;61848.63;5111587;28;20199;-71
2022/04/24 01:44:56;;;;;;;9.83;6.10;;;;;;;9.83;100.00;61846.50;5111621;28;20195;-71
2022/04/24 01:47:22;;;;;;;11.37;6.33;;;;;;;9.85;100.00;61853.72;5111770;28;20195;-72
2022/04/24 01:49:49;;;;;;;8.33;5.73;;;;;;;9.85;100.00;61851.16;5111513;28;21066;-73
2022/04/24 01:52:16;;;;;;;13.63;5.87;;;;;;;9.67;100.00;61837.00;5111634;28;20194;-71
2022/04/24 01:54:44;;;;;;;13.00;6.17;;;;;;;9.70;100.00;61837.66;5111689;28;20272;-73
2022/04/24 01:57:11;;;;;;;9.40;5.80;;;;;;;9.69;100.00;61839.66;5111701;28;20199;-71
2022/04/24 01:59:38;;;;;;;10.40;5.67;;;;;;;9.75;100.00;61843.00;5111368;28;20454;-73
2022/04/24 02:02:05;;;;;;;13.03;5.97;;;;;;;9.76;100.00;61844.09;5111741;28;20448;-72
2022/04/24 02:04:32;;;;;;;8.43;5.70;;;;;;;9.69;100.00;61836.59;5111402;28;20619;-71
2022/04/24 02:06:59;;;;;;;7.97;5.10;;;;;;;9.71;100.00;61838.72;5111617;28;20444;-71
2022/04/24 02:09:26;;;;;;;9.33;4.37;;;;;;;9.66;100.00;61835.94;5115250;28;20705;-71
2022/04/24 02:11:54;;;;;;;8.53;4.20;;;;;;;9.76;100.00;61846.63;5115544;28;20814;-72
2022/04/24 02:14:21;;;;;;;8.57;4.23;;;;;;;9.71;100.00;61838.72;5115407;28;20195;-71
2022/04/24 02:16:48;;;;;;;8.53;4.83;;;;;;;9.76;100.00;61846.63;5115254;28;20657;-73
2022/04/24 02:19:14;;;;;;;12.03;4.67;;;;;;;9.83;100.00;61846.50;5115019;28;20836;-72
2022/04/24 02:21:41;;;;;;;7.93;4.00;;;;;;;9.83;100.00;61856.66;5114860;28;20513;-72
2022/04/24 02:24:08;;;;;;;7.97;4.27;;;;;;;9.85;100.00;61854.25;5115274;28;20198;-72
2022/04/24 02:26:35;;;;;;;7.33;3.80;;;;;;;9.82;100.00;61850.50;5115373;28;20991;-71
2022/04/24 02:29:04;;;;;;;9.17;4.80;;;;;;;9.29;100.00;61794.88;5114267;28;20472;-72
2022/04/24 02:31:31;;;;;;;7.97;4.60;;;;;;;9.67;100.00;61834.44;5115220;28;20239;-71
2022/04/24 02:33:58;;;;;;;8.40;4.67;;;;;;;9.07;100.00;61773.88;5115062;28;20490;-71
2022/04/24 02:36:24;;;;;;;9.97;4.60;;;;;;;9.43;100.00;61811.31;5114994;28;20527;-72
2022/04/24 02:38:51;;;;;;;8.77;4.87;;;;;;;9.47;100.00;61815.59;5115181;28;20449;-73
2022/04/24 02:41:18;;;;;;;11.33;5.17;;;;;;;9.48;100.00;61817.19;5114913;28;20448;-72
2022/04/24 02:43:45;;;;;;;5.50;4.13;;;;;;;9.51;100.00;61815.31;5114788;28;20198;-72
2022/04/24 02:46:13;;;;;;;6.00;4.10;;;;;;;9.52;100.00;61816.38;5114657;28;20448;-71
2022/04/24 02:48:40;;;;;;;9.77;4.23;;;;;;;9.58;100.00;61825.34;5114546;28;20947;-71
2022/04/24 02:51:08;;;;;;;7.27;4.00;;;;;;;9.10;100.00;61777.06;5114708;28;20203;-71
2022/04/24 02:53:35;;;;;;;9.43;4.30;;;;;;;9.58;100.00;61824.81;5114647;28;20569;-72
2022/04/24 02:56:01;;;;;;;8.83;4.70;;;;;;;9.51;100.00;61817.31;5114623;28;20509;-72
2022/04/24 02:58:28;;;;;;;10.67;4.70;;;;;;;9.46;100.00;61811.97;5114628;28;20267;-71
2022/04/24 03:00:56;;;;;;;8.13;4.60;;;;;;;9.18;100.00;61783.09;5114283;28;20453;-71
2022/04/24 03:03:25;;;;;;;9.70;5.43;;;;;;;9.13;100.00;61777.75;5114237;28;20444;-71
2022/04/24 03:05:52;;;;;;;8.40;4.97;;;;;;;9.18;100.00;61783.09;5114358;28;20198;-73
2022/04/24 03:08:20;;;;;;;10.83;4.80;;;;;;;8.69;100.00;61730.69;5114238;28;20502;-71
2022/04/24 03:10:47;;;;;;;9.00;5.00;;;;;;;9.16;100.00;61786.03;5114090;28;20541;-72
2022/04/24 03:13:14;;;;;;;10.83;5.90;;;;;;;9.04;100.00;61768.13;5114037;28;20445;-72
2022/04/24 03:15:41;;;;;;;13.87;6.17;;;;;;;9.01;100.00;61769.44;5114313;28;20529;-70
2022/04/24 03:18:08;;;;;;;10.47;6.20;;;;;;;9.01;100.00;61770.00;5113756;28;20445;-71
2022/04/24 03:20:36;;;;;;;15.30;7.00;;;;;;;9.12;100.00;61776.13;5113938;28;20453;-71
2022/04/24 03:23:03;;;;;;;14.07;7.23;;;;;;;9.11;100.00;61770.53;5114037;28;20939;-73
2022/04/24 03:25:29;;;;;;;16.03;7.60;;;;;;;9.07;100.00;61766.25;5114072;28;20437;-72
2022/04/24 03:27:57;;;;;;;16.90;8.50;;;;;;;9.09;100.00;61773.47;5113925;28;20955;-72
2022/04/24 03:30:25;;;;;;;13.67;8.23;;;;;;;9.06;100.00;61770.25;5113780;28;20916;-73
2022/04/24 03:32:51;;;;;;;15.63;7.67;;;;;;;8.92;100.00;61760.34;5113806;28;20514;-73
2022/04/24 03:35:18;;;;;;;21.97;9.03;;;;;;;8.85;100.00;61740.19;5113799;28;20457;-71
2022/04/24 03:37:47;;;;;;;20.57;8.50;;;;;;;8.86;100.00;61753.94;5113690;28;20456;-71
2022/04/24 03:40:13;;;;;;;14.23;7.87;;;;;;;8.84;100.00;61746.72;5113674;28;20803;-73
2022/04/24 03:42:42;;;;;;;15.07;7.97;;;;;;;8.97;100.00;61760.09;5113933;28;20452;-72
2022/04/24 03:45:11;;;;;;;13.77;6.70;;;;;;;9.07;100.00;61771.31;5113386;28;20444;-71
2022/04/24 03:47:38;;;;;;;15.83;7.23;;;;;;;9.10;100.00;61776.53;5113801;28;20437;-72
2022/04/24 03:50:06;;;;;;;9.83;6.47;;;;;;;9.13;100.00;61777.75;5113697;28;20545;-71
2022/04/24 03:52:34;;;;;;;30.20;7.23;;;;;;;9.12;100.00;61774.13;5113374;28;20459;-72
2022/04/24 03:55:02;;;;;;;16.70;6.80;;;;;;;9.18;100.00;61782.53;5113425;28;20445;-71
2022/04/24 03:57:29;;;;;;;14.73;6.63;;;;;;;8.44;100.00;61707.03;5113283;28;20815;-71
2022/04/24 03:59:56;;;;;;;15.70;6.60;;;;;;;9.24;100.00;61789.50;5112024;28;20449;-71
2022/04/24 04:02:24;;;;;;;12.77;5.70;;;;;;;9.31;100.00;61797.00;5113414;28;20449;-74
2022/04/24 04:04:52;;;;;;;9.67;5.37;;;;;;;9.37;100.00;61802.88;5113101;28;20448;-73
2022/04/24 04:07:18;;;;;;;8.33;4.57;;;;;;;9.46;100.00;61812.50;5113021;28;20498;-72
2022/04/24 04:09:46;;;;;;;13.37;5.00;;;;;;;9.64;100.00;61826.16;5113132;28;20492;-74
2022/04/24 04:12:14;;;;;;;8.07;4.60;;;;;;;10.08;100.00;61878.34;5112881;28;20834;-73
2022/04/24 04:14:41;;;;;;;18.27;5.10;;;;;;;10.28;100.00;61899.78;5113396;28;20437;-73
2022/04/24 04:17:08;;;;;;;7.83;4.77;;;;;;;10.16;100.00;61886.94;5113119;28;20723;-72
2022/04/24 04:19:36;;;;;;;9.93;5.10;;;;;;;10.37;100.00;61909.41;5112711;28;20271;-72
2022/04/24 04:22:03;;;;;;;12.87;5.43;;;;;;;10.16;100.00;61886.94;5113067;28;20223;-72
2022/04/24 04:24:30;;;;;;;14.70;5.93;;;;;;;10.36;100.00;61912.91;5112790;28;20195;-72
2022/04/24 04:26:57;;;;;;;14.30;6.47;;;;;;;10.19;100.00;61890.13;5112676;28;20456;-71
2022/04/24 04:29:25;;;;;;;12.17;7.37;;;;;;;10.46;100.00;61919.06;5112104;28;20480;-71
2022/04/24 04:31:52;;;;;;;15.93;8.10;;;;;;;10.50;100.00;61920.81;5112940;28;20448;-72
2022/04/24 04:34:19;;;;;;;14.93;8.13;;;;;;;10.69;100.00;61946.25;5112465;28;20681;-71
2022/04/24 04:36:47;;;;;;;13.10;7.73;;;;;;;10.38;100.00;61912.50;5112546;28;20449;-73
2022/04/24 04:39:14;;;;;;;13.73;6.73;;;;;;;10.51;100.00;61921.88;5112349;28;20952;-72
2022/04/24 04:41:41;;;;;;;11.63;7.17;;;;;;;10.50;100.00;61920.81;5112704;28;20514;-72
2022/04/24 04:44:07;;;;;;;13.03;7.00;;;;;;;10.64;100.00;61937.81;5112486;28;20243;-71
2022/04/24 04:46:35;;;;;;;15.03;9.30;;;;;;;10.73;100.00;61950.53;5112533;28;20191;-70
2022/04/24 04:49:02;;;;;;;20.40;9.73;;;;;;;10.75;100.00;61947.03;5112078;28;20272;-73
2022/04/24 04:51:29;;;;;;;15.77;8.30;;;;;;;10.77;100.00;61952.28;5112239;28;20675;-71
2022/04/24 04:53:56;;;;;;;19.30;7.97;;;;;;;10.75;100.00;61950.13;5112221;28;20203;-73
2022/04/24 04:56:23;;;;;;;15.20;8.30;;;;;;;10.94;100.00;61973.03;5112156;28;20734;-72
2022/04/24 04:58:49;;;;;;;16.20;7.07;;;;;;;10.96;100.00;61972.63;5112319;28;20198;-72
2022/04/24 05:01:16;;;;;;;12.07;6.70;;;;;;;10.79;100.00;61954.41;5112013;28;20644;-73
2022/04/24 05:03:44;;;;;;;11.60;7.23;;;;;;;11.07;100.00;61981.88;5112245;28;20688;-72
2022/04/24 05:06:11;;;;;;;15.00;7.40;;;;;;;11.28;100.00;62006.41;5112052;28;20203;-72
2022/04/24 05:08:38;;;;;;;13.07;7.70;;;;;;;11.41;100.00;62019.81;5112114;28;20255;-71
2022/04/24 05:11:05;;;;;;;15.00;8.03;;;;;;;11.34;100.00;62012.28;5112088;28;20291;-71
2022/04/24 05:13:31;;;;;;;13.80;9.43;;;;;;;11.39;100.00;62017.66;5112098;28;20195;-72
2022/04/24 05:15:58;;;;;;;12.80;8.97;;;;;;;11.52;100.00;62034.13;5112113;28;20195;-71
2022/04/24 05:18:26;;;;;;;11.87;8.20;;;;;;;10.82;100.00;61952.53;5111913;28;20206;-73
2022/04/24 05:20:55;;;;;;;15.67;9.07;;;;;;;12.15;100.00;62096.09;5111867;28;20218;-71
2022/04/24 05:23:22;;;;;;;11.33;8.33;;;;;;;12.41;100.00;62124.53;5111703;28;20286;-72
2022/04/24 05:25:49;;;;;;;12.50;8.03;;;;;;;12.38;100.00;62123.88;5112107;28;20195;-72
2022/04/24 05:28:16;;;;;;;15.10;7.97;;;;;;;12.52;100.00;62138.88;5111721;28;20274;-71
2022/04/24 05:30:42;;;;;;;15.23;8.07;;;;;;;12.81;100.00;62166.38;5111503;28;20302;-72
2022/04/24 05:33:10;;;;;;;12.00;8.00;;;;;;;12.85;100.00;62173.25;5111644;28;20206;-73
2022/04/24 05:35:37;;;;;;;12.40;5.87;;;;;;;13.12;100.00;62202.78;5111812;28;20199;-72
2022/04/24 05:38:06;;;;;;;14.03;5.50;;;;;;;13.21;100.00;62211.91;5111681;28;20638;-73
2022/04/24 05:40:32;;;;;;;10.30;5.50;;;;;;;13.25;100.00;62213.66;5111547;28;20726;-72
2022/04/24 05:42:59;;;;;;;10.70;5.77;;;;;;;13.54;100.00;62247.91;5115395;28;20244;-71
2022/04/24 05:45:26;;;;;;;8.67;5.90;;;;;;;13.71;100.00;62265.63;5115819;28;20221;-73
2022/04/24 05:47:55;;;;;;;10.60;5.23;;;;;;;13.71;100.00;62265.63;5115961;28;20198;-71
2022/04/24 05:50:23;;;;;;;9.57;5.10;;;;;;;13.83;100.00;62278.53;5115499;28;20242;-73
2022/04/24 05:52:55;;;;;;;12.37;4.60;;;;;;;13.99;100.00;62292.63;5115638;28;20199;-73
2022/04/24 05:55:23;;;;;;;5.50;4.10;;;;;;;14.11;100.00;62308.63;5115589;28;20790;-70
2022/04/24 05:57:50;;;;;;;7.57;4.40;;;;;;;14.07;100.00;62304.34;5115690;28;20195;-72
2022/04/24 06:00:17;;;;;;;6.50;4.07;;;;;;;13.88;100.00;62281.34;5115610;28;20206;-72
2022/04/24 06:02:46;;;;;;;7.33;4.57;;;;;;;14.21;100.00;62318.84;5115665;28;20248;-72
2022/04/24 06:05:13;;;;;;;7.90;4.70;;;;;;;14.46;100.00;62350.34;5115715;27;20245;-71
2022/04/24 06:07:40;;;;;;;8.27;4.63;;;;;;;14.30;100.00;62328.56;5115697;28;20195;-71
2022/04/24 06:10:09;;;;;;;10.07;5.37;;;;;;;14.90;100.00;62392.53;5114919;28;20233;-71
2022/04/24 06:12:48;;;;;;;15.93;4.80;;;;;;;15.19;100.00;62423.75;5116162;28;20314;-71
2022/04/24 06:15:17;;;;;;;11.57;5.17;;;;;;;15.12;100.00;62416.22;5115773;28;20202;-73
2022/04/24 06:17:46;;;;;;;8.13;5.33;;;;;;;15.76;100.00;62484.56;5115512;28;20251;-72
2022/04/24 06:20:14;;;;;;;8.03;4.30;;;;;;;15.77;100.00;62486.22;5115227;28;20265;-71
2022/04/24 06:22:45;;;;;;;6.60;3.73;;;;;;;15.46;100.00;62452.81;5115453;28;20198;-72
2022/04/24 06:25:16;;;;;;;9.10;4.40;;;;;;;14.00;100.00;62296.81;5114926;28;20195;-71
2022/04/24 06:27:45;;;;;;;6.00;3.43;;;;;;;16.15;100.00;62529.16;5114997;28;20191;-71
2022/04/24 06:30:12;;;;;;;4.40;3.60;;;;;;;16.52;100.00;62565.94;5114857;28;20231;-71
2022/04/24 06:32:39;;;;;;;6.53;3.90;;;;;;;17.01;100.00;62618.72;5114826;28;20323;-72
2022/04/24 06:35:09;;;;;;;5.37;3.80;;;;;;;17.25;100.00;62644.06;5114881;28;20272;-71
2022/04/24 06:37:36;;;;;;;7.80;4.00;;;;;;;17.28;100.00;62647.31;5114917;28;20195;-72
2022/04/24 06:40:02;;;;;;;10.13;3.67;;;;;;;17.55;100.00;62673.88;5114756;28;20585;-72
2022/04/24 06:42:29;;;;;;;6.33;3.60;;;;;;;17.89;100.00;62713.13;5114718;28;20203;-71
2022/04/24 06:44:58;;;;;;;7.00;3.10;;;;;;;17.67;100.00;62689.94;5115049;28;20199;-72
2022/04/24 06:47:27;;;;;;;9.40;3.50;;;;;;;18.04;100.00;62726.19;5114869;28;20203;-71
2022/04/24 06:49:54;;;;;;;6.53;3.53;;;;;;;17.77;100.00;62704.81;5114619;28;20656;-72
2022/04/24 06:52:21;;;;;;;7.10;3.33;;;;;;;17.69;100.00;62697.25;5113822;28;20602;-71
2022/04/24 06:54:48;;;;;;;8.80;3.33;;;;;;;17.46;100.00;62667.25;5114408;28;20202;-72
2022/04/24 06:57:15;;;;;;;7.57;3.60;;;;;;;17.94;100.00;62717.97;5114738;28;20315;-72
2022/04/24 06:59:42;;;;;;;7.10;3.80;;;;;;;18.07;100.00;62732.00;5114609;28;20195;-72
2022/04/24 07:02:10;;;;;;;8.70;3.67;;;;;;;18.10;100.00;62737.81;5114114;28;20721;-72
2022/04/24 07:04:38;;;;;;;4.60;3.67;;;;;;;18.62;100.00;62788.25;5114581;28;20225;-71
2022/04/24 07:07:05;;;;;;;7.43;4.00;;;;;;;18.79;100.00;62809.75;5114262;28;20267;-73
2022/04/24 07:09:32;;;;;;;8.67;3.70;;;;;;;18.95;100.00;62832.19;5114212;28;20230;-71
2022/04/24 07:11:59;;;;;;;8.37;3.73;;;;;;;18.96;100.00;62830.69;5114447;28;20234;-72
2022/04/24 07:14:26;;;;;;;8.97;3.97;;;;;;;18.58;100.00;62787.06;5114559;28;20588;-73
2022/04/24 07:16:53;;;;;;;7.40;3.30;;;;;;;18.16;100.00;62744.28;5114315;28;20260;-71
2022/04/24 07:19:21;;;;;;;7.23;3.30;;;;;;;17.85;100.00;62708.28;5113942;27;20219;-73
2022/04/24 07:21:49;;;;;;;8.70;3.37;;;;;;;18.31;100.00;62757.91;5114013;28;20661;-72
2022/04/24 07:24:17;;;;;;;7.60;3.40;;;;;;;18.77;100.00;62807.59;5113552;28;20734;-73
2022/04/24 07:26:45;;;;;;;11.77;3.67;;;;;;;19.19;100.00;62852.94;5113828;28;20714;-72
2022/04/24 07:29:13;;;;;;;11.60;3.97;;;;;;;19.42;100.00;62874.16;5113924;28;20203;-71
2022/04/24 07:31:40;;;;;;;4.93;3.20;;;;;;;19.06;100.00;62838.91;5113795;28;20235;-71
2022/04/24 07:34:09;;;;;;;6.03;3.30;;;;;;;19.62;100.00;62898.34;5113632;28;20252;-72
2022/04/24 07:36:38;;;;;;;7.37;3.63;;;;;;;19.81;100.00;62918.88;5113977;28;20662;-72
2022/04/24 07:39:05;;;;;;;6.73;3.17;;;;;;;20.20;100.00;62963.66;5113885;28;20202;-71
2022/04/24 07:41:32;;;;;;;5.83;2.70;;;;;;;20.69;100.00;63008.88;5113855;28;20203;-72
2022/04/24 07:43:58;;;;;;;9.60;3.20;;;;;;;20.95;100.00;63039.59;5113832;28;20199;-72
2022/04/24 07:46:27;;;;;;;6.87;3.23;;;;;;;20.29;100.00;62970.78;5113715;28;20195;-72
2022/04/24 07:48:53;;;;;;;5.70;3.17;;;;;;;20.84;100.00;63030.28;5113564;28;20248;-73
2022/04/24 07:51:20;;;;;;;4.97;3.43;;;;;;;21.08;100.00;63055.19;5113358;28;20288;-73
2022/04/24 07:53:48;;;;;;;7.27;3.33;;;;;;;20.70;100.00;63014.59;5113569;28;20553;-73
2022/04/24 07:56:15;;;;;;;9.70;3.57;;;;;;;21.16;100.00;63063.84;5113521;28;20249;-71
2022/04/24 07:58:42;;;;;;;6.70;2.83;;;;;;;20.50;100.00;62990.91;5113835;28;20342;-72
2022/04/24 08:01:10;;;;;;;8.53;3.30;;;;;;;20.22;100.00;62958.06;5113448;28;20263;-73
2022/04/24 08:03:37;;;;;;;10.57;3.43;;;;;;;21.00;100.00;63050.19;5112807;28;20218;-72
2022/04/24 08:06:04;;;;;;;11.27;3.23;;;;;;;21.34;100.00;63088.50;5113124;28;20202;-72
2022/04/24 08:08:31;;;;;;;5.07;3.10;;;;;;;21.49;100.00;63100.09;5113337;28;20252;-72
2022/04/24 08:11:00;;;;;;;8.57;3.00;;;;;;;21.41;100.00;63091.44;5111983;28;20219;-72
2022/04/24 08:13:29;;;;;;;8.10;3.17;;;;;;;21.25;100.00;63073.59;5113000;28;20703;-71
2022/04/24 08:15:59;;;;;;;7.23;3.10;;;;;;;20.76;100.00;63016.44;5112998;28;20299;-71
2022/04/24 08:18:25;;;;;;;6.60;3.00;;;;;;;20.55;100.00;62996.31;5113044;28;20239;-71
2022/04/24 08:20:52;;;;;;;7.63;3.00;;;;;;;20.59;100.00;62998.06;5112792;28;20704;-71
2022/04/24 08:23:20;;;;;;;5.50;2.67;;;;;;;20.86;100.00;63029.84;5112788;28;20666;-73
2022/04/24 08:25:47;;;;;;;6.93;2.80;;;;;;;21.05;100.00;63049.88;5112883;28;20587;-71
2022/04/24 08:28:16;;;;;;;11.13;2.60;;;;;;;21.19;100.00;63062.44;5112740;28;20202;-71
2022/04/24 08:30:44;;;;;;;6.93;2.33;;;;;;;21.49;100.00;63096.97;5112769;28;20234;-71
2022/04/24 08:33:11;;;;;;;5.87;2.60;;;;;;;21.44;100.00;63089.50;5112606;28;20242;-71
2022/04/24 08:35:39;;;;;;;2.87;2.27;;;;;;;21.79;100.00;63129.44;5112451;28;20195;-72
2022/04/24 08:38:06;;;;;;;6.23;2.40;;;;;;;21.85;100.00;63133.38;5112780;28;20208;-71
2022/04/24 08:40:33;;;;;;;5.43;2.70;;;;;;;22.29;100.00;63181.03;5112696;28;20190;-72
2022/04/24 08:43:03;;;;;;;5.30;2.53;;;;;;;22.33;100.00;63190.53;5112506;28;20248;-72
2022/04/24 08:45:32;;;;;;;6.97;2.70;;;;;;;22.85;100.00;63243.22;5112740;28;20199;-72
2022/04/24 08:48:00;;;;;;;8.50;2.67;;;;;;;23.27;100.00;63286.16;5112839;28;20556;-72
2022/04/24 08:50:30;;;;;;;4.30;2.23;;;;;;;23.49;100.00;63310.03;5112480;28;20194;-72
2022/04/24 08:52:57;;;;;;;7.23;2.33;;;;;;;23.35;100.00;63300.03;5112175;28;20203;-72
2022/04/24 08:55:27;;;;;;;7.13;2.40;;;;;;;23.57;100.00;63323.34;5112198;28;20289;-73
2022/04/24 08:57:54;;;;;;;9.20;2.50;;;;;;;23.47;100.00;63310.44;5111155;28;20207;-72
2022/04/24 09:00:21;;;;;;;5.53;2.60;;;;;;;23.65;100.00;63332.56;5112389;28;20202;-72
2022/04/24 09:02:50;;;;;;;8.20;2.30;;;;;;;23.83;100.00;63351.53;5112479;28;20210;-73
2022/04/24 09:05:18;;;;;;;3.97;2.30;;;;;;;24.01;100.00;63371.06;5112141;28;20195;-71
2022/04/24 09:07:45;;;;;;;6.23;2.67;;;;;;;23.57;100.00;63318.69;5112226;28;20194;-72
2022/04/24 09:10:12;;;;;;;13.37;3.43;;;;;;;23.42;100.00;63302.44;5112124;28;20199;-72
2022/04/24 09:12:40;;;;;;;6.77;2.77;;;;;;;23.86;100.00;63352.75;5112569;28;20318;-72
2022/04/24 09:15:09;;;;;;;6.60;2.80;;;;;;;24.17;100.00;63385.84;5112054;28;20297;-72
2022/04/24 09:17:38;;;;;;;5.33;2.43;;;;;;;24.48;100.00;63424.16;5112177;28;20225;-72
2022/04/24 09:20:18;;;;;;;6.30;2.70;;;;;;;24.52;100.00;63421.25;5112070;28;20233;-72
2022/04/24 09:22:46;;;;;;;3.17;2.40;;;;;;;24.63;100.00;63435.78;5112202;28;20259;-71
2022/04/24 09:25:13;;;;;;;7.17;2.63;;;;;;;24.51;100.00;63424.81;5111670;28;20717;-72
2022/04/24 09:27:41;;;;;;;8.67;2.67;;;;;;;24.53;100.00;63422.31;5111648;28;20209;-73
2022/04/24 09:30:12;;;;;;;5.67;2.47;;;;;;;24.35;100.00;63407.47;5112144;28;20589;-72
2022/04/24 09:32:47;;;;;;;13.10;3.03;;;;;;;24.99;100.00;63471.75;5111904;28;20281;-72
2022/04/24 09:35:25;;;;;;;9.57;2.60;;;;;;;24.85;100.00;63462.28;5111834;28;20277;-73
2022/04/24 09:37:52;;;;;;;7.47;2.90;;;;;;;25.35;100.00;63510.28;5112020;28;20353;-73
2022/04/24 09:40:20;;;;;;;5.73;2.70;;;;;;;25.33;100.00;63508.66;5111743;28;20191;-72
2022/04/24 09:42:54;;;;;;;5.37;2.80;;;;;;;25.43;100.00;63521.59;5111710;28;20776;-74
2022/04/24 09:45:25;;;;;;;4.57;2.30;;;;;;;25.53;100.00;63533.00;5111624;28;20709;-71
2022/04/24 09:47:59;;;;;;;5.43;2.60;;;;;;;26.10;100.00;63596.50;5111689;28;20195;-71
2022/04/24 09:50:30;;;;;;;9.03;2.50;;;;;;;26.48;100.00;63633.09;5111928;28;20202;-72
2022/04/24 09:52:58;;;;;;;8.17;2.33;;;;;;;25.51;100.00;63532.91;5112100;28;20264;-72
2022/04/24 09:55:26;;;;;;;8.37;2.50;;;;;;;25.59;100.00;63539.53;5111610;28;20230;-71
2022/04/24 09:57:54;;;;;;;6.30;2.37;;;;;;;25.87;100.00;63572.56;5111684;28;20295;-72
2022/04/24 10:00:23;;;;;;;6.77;2.60;;;;;;;25.79;100.00;63561.25;5111422;28;20748;-72
2022/04/24 10:02:51;;;;;;;4.53;2.10;;;;;;;26.20;100.00;63602.13;5111663;28;20195;-72
2022/04/24 10:05:20;;;;;;;5.23;2.33;;;;;;;25.96;100.00;63577.13;5111602;28;20290;-71
2022/04/24 10:07:50;;;;;;;5.57;2.47;;;;;;;26.44;100.00;63630.84;5111767;28;20199;-73
2022/04/24 10:10:17;;;;;;;6.13;2.57;;;;;;;26.58;100.00;63646.59;5111511;28;20199;-73
2022/04/24 10:12:48;;;;;;;5.83;2.27;;;;;;;26.69;100.00;63658.00;5111553;28;20282;-73
2022/04/24 10:15:17;;;;;;;7.17;2.43;;;;;;;26.72;100.00;63663.91;5111654;28;20199;-72
2022/04/24 10:18:04;;;;;;;6.27;2.10;;;;;;;26.86;100.00;63675.97;5111685;28;20199;-73
2022/04/24 10:20:43;;;;;;;5.10;2.00;;;;;;;27.38;100.00;63732.56;5111366;28;20221;-71
2022/04/24 10:23:12;;;;;;;9.03;2.40;;;;;;;27.38;95.68;63732.56;5111180;28;20271;-71
2022/04/24 10:25:40;;;;;;;3.33;2.23;;;;;;;27.39;98.13;63731.03;5111177;28;20195;-72
2022/04/24 10:28:13;;;;;;;6.70;2.30;;;;;;;27.27;91.37;63717.94;5112705;28;20566;-72
2022/04/24 10:30:40;;;;;;;4.90;2.00;;;;;;;27.28;94.71;63722.22;5115042;28;20245;-72
2022/04/24 10:33:17;;;;;;;3.93;2.00;;;;;;;27.36;94.86;63730.94;5114877;28;20234;-71
2022/04/24 10:35:51;;;;;;;6.33;2.10;;;;;;;27.26;92.24;63717.41;5115250;28;20199;-72
2022/04/24 10:38:21;;;;;;;9.17;1.93;;;;;;;27.01;90.23;63690.22;5115267;28;20199;-72
2022/04/24 10:41:02;;;;;;;5.47;2.17;;;;;;;27.77;91.93;63774.47;5114989;28;20207;-74
2022/04/24 10:43:39;;;;;;;7.60;2.63;;;;;;;28.16;87.17;63814.31;5115016;28;20198;-72
2022/04/24 10:46:19;;;;;;;5.00;2.20;;;;;;;26.25;80.74;63610.19;5114839;28;20636;-73
2022/04/24 10:48:47;;;;;;;6.30;2.17;;;;;;;28.00;84.13;63799.50;5113383;28;20252;-73
2022/04/24 10:51:15;;;;;;;4.33;2.10;;;;;;;27.67;85.01;63766.19;5114678;28;20590;-73
2022/04/24 10:53:57;;;;;;;7.00;1.93;;;;;;;27.63;81.51;63759.22;5115082;28;20203;-72
2022/04/24 10:56:24;;;;;;;6.03;2.23;;;;;;;27.20;84.60;63705.66;5115153;28;20665;-72
2022/04/24 10:58:51;;;;;;;7.20;2.03;;;;;;;27.59;89.46;63755.41;5114801;28;20191;-73
2022/04/24 11:01:19;;;;;;;9.67;2.07;;;;;;;27.89;79.35;63784.91;5114653;28;20251;-72
2022/04/24 11:03:47;;;;;;;4.90;1.70;;;;;;;28.13;75.60;63816.28;5114777;28;20260;-73
2022/04/24 11:06:18;;;;;;;3.23;1.80;;;;;;;28.05;66.34;63807.59;5114572;28;20249;-72
2022/04/24 11:08:46;;;;;;;5.80;2.10;;;;;;;28.18;64.19;63821.72;5114963;28;20693;-72
2022/04/24 11:11:15;;;;;;;6.10;2.13;;;;;;;27.73;66.91;63767.50;5114534;28;20248;-72
2022/04/24 11:13:43;;;;;;;2.17;1.70;;;;;;;28.33;70.05;63835.44;5114679;28;20195;-73
2022/04/24 11:16:10;;;;;;;5.87;2.10;;;;;;;27.81;66.92;63776.19;5114115;28;20652;-72
2022/04/24 11:18:39;;;;;;;4.37;1.90;;;;;;;27.66;65.47;63759.88;5114290;28;20248;-72
2022/04/24 11:21:08;;;;;;;3.20;1.83;;;;;;;28.29;66.74;63834.25;5114257;28;20219;-72
2022/04/24 11:23:37;;;;;;;4.63;2.40;;;;;;;28.67;72.01;63872.50;5114084;28;20203;-73
2022/04/24 11:26:08;;;;;;;9.17;3.70;;;;;;;29.01;69.48;63906.91;5114366;28;20191;-72
2022/04/24 11:28:41;;;;;;;7.63;3.50;;;;;;;29.33;65.21;63940.69;5114385;28;20195;-72